Time;durP1;ratioP1;P1;durP2;ratioP2;P2;SDS_P1;SDS_P2;PMS_P1;PMS_P2;Temp;Humidity;BMP_temperature;BMP_pressure;BME280_temperature;BME280_humidity;BME280_pressure;Samples;Min_cycle;Max_cycle;Signal;HPM_P1;HPM_P2
2024/01/20 00:01:47;;;;;;;7.45;2.60;;;1.30;99.90;;;;;;5095368;28;20040;-66
2024/01/20 00:04:13;;;;;;;7.22;3.03;;;1.30;99.90;;;;;;5094252;28;20441;-66
2024/01/20 00:06:39;;;;;;;9.60;2.75;;;1.30;99.90;;;;;;5093104;28;20184;-66
2024/01/20 00:09:04;;;;;;;6.72;2.83;;;1.30;99.90;;;;;;5111303;28;20119;-66
2024/01/20 00:11:30;;;;;;;9.05;2.95;;;1.30;99.90;;;;;;5094992;28;20119;-66
2024/01/20 00:13:56;;;;;;;9.68;3.40;;;1.30;99.90;;;;;;5110330;28;20051;-66
2024/01/20 00:16:21;;;;;;;11.93;2.97;;;1.20;99.90;;;;;;5093859;28;20044;-66
2024/01/20 00:18:47;;;;;;;11.00;3.22;;;1.30;99.90;;;;;;5095083;28;20113;-66
2024/01/20 00:21:13;;;;;;;11.73;3.75;;;1.20;99.90;;;;;;5094541;28;20040;-66
2024/01/20 00:23:38;;;;;;;8.18;3.50;;;1.20;99.90;;;;;;5093857;28;20106;-66
2024/01/20 00:26:04;;;;;;;6.65;2.60;;;1.20;99.90;;;;;;5094749;28;20429;-65
2024/01/20 00:28:30;;;;;;;10.45;2.65;;;1.20;99.90;;;;;;5093471;28;20066;-66
2024/01/20 00:30:55;;;;;;;9.48;3.30;;;1.10;99.90;;;;;;5095189;28;20100;-66
2024/01/20 00:33:21;;;;;;;8.90;2.90;;;1.10;99.90;;;;;;5092839;28;20480;-65
2024/01/20 00:35:47;;;;;;;11.73;3.03;;;1.10;99.90;;;;;;5093593;28;20397;-66
2024/01/20 00:38:13;;;;;;;5.70;2.75;;;1.10;99.90;;;;;;5094500;28;20036;-66
2024/01/20 00:40:39;;;;;;;7.38;2.90;;;1.10;99.90;;;;;;5094119;28;20043;-66
2024/01/20 00:43:05;;;;;;;10.43;3.60;;;1.10;99.90;;;;;;5093754;28;20545;-66
2024/01/20 00:45:31;;;;;;;9.73;3.08;;;1.10;99.90;;;;;;5093599;28;20156;-66
2024/01/20 00:47:57;;;;;;;14.05;3.20;;;1.10;99.90;;;;;;5092885;28;20063;-66
2024/01/20 00:50:23;;;;;;;9.93;3.25;;;1.10;99.90;;;;;;5076324;28;20481;-66
2024/01/20 00:52:49;;;;;;;7.88;2.67;;;1.20;99.90;;;;;;5109462;28;20072;-65
2024/01/20 00:55:15;;;;;;;12.90;3.28;;;1.20;99.90;;;;;;5092259;28;20051;-65
2024/01/20 00:57:40;;;;;;;10.25;3.70;;;1.20;99.90;;;;;;5092901;28;20056;-65
2024/01/20 01:00:09;;;;;;;11.73;3.28;;;1.30;99.90;;;;;;5093327;28;20047;-65
2024/01/20 01:02:39;;;;;;;10.27;3.30;;;1.30;99.90;;;;;;5092101;28;20055;-66
2024/01/20 01:05:05;;;;;;;9.20;3.55;;;1.30;99.90;;;;;;5094412;28;20070;-65
2024/01/20 01:07:32;;;;;;;11.57;2.95;;;1.30;99.90;;;;;;5092527;28;20036;-65
2024/01/20 01:09:58;;;;;;;8.07;3.45;;;1.30;99.90;;;;;;5109905;28;20032;-65
2024/01/20 01:12:24;;;;;;;9.48;3.85;;;1.40;99.90;;;;;;5094341;28;20442;-65
2024/01/20 01:14:50;;;;;;;11.70;4.70;;;1.40;99.90;;;;;;5076023;28;20047;-65
2024/01/20 01:17:18;;;;;;;7.55;2.95;;;1.40;99.90;;;;;;5091606;28;20054;-65
2024/01/20 01:19:44;;;;;;;10.20;3.20;;;1.50;99.90;;;;;;5075846;28;20052;-65
2024/01/20 01:22:10;;;;;;;8.93;3.00;;;1.40;99.90;;;;;;5075087;28;20142;-65
2024/01/20 01:24:37;;;;;;;9.00;3.10;;;1.40;99.90;;;;;;5092536;28;20171;-65
2024/01/20 01:27:03;;;;;;;9.30;3.33;;;1.40;99.90;;;;;;5092880;28;20503;-65
2024/01/20 01:29:29;;;;;;;9.88;3.20;;;1.40;99.90;;;;;;5091575;28;20044;-65
2024/01/20 01:31:55;;;;;;;11.20;4.03;;;1.50;99.90;;;;;;5093093;28;20043;-65
2024/01/20 01:34:20;;;;;;;9.88;2.75;;;1.40;99.90;;;;;;5092567;28;20514;-66
2024/01/20 01:36:46;;;;;;;9.52;2.70;;;1.50;99.90;;;;;;5091547;28;20048;-65
2024/01/20 01:39:12;;;;;;;9.75;2.72;;;1.50;99.90;;;;;;5092478;28;20044;-65
2024/01/20 01:41:37;;;;;;;12.55;3.58;;;1.50;99.90;;;;;;5093535;28;20052;-65
2024/01/20 01:44:03;;;;;;;11.85;3.30;;;1.50;99.90;;;;;;5091854;28;20121;-65
2024/01/20 01:46:29;;;;;;;7.10;3.15;;;1.50;99.90;;;;;;5077336;28;20165;-65
2024/01/20 01:48:56;;;;;;;8.13;2.70;;;1.50;99.90;;;;;;5072169;28;20059;-66
2024/01/20 01:51:21;;;;;;;8.30;2.80;;;1.50;99.90;;;;;;5071379;28;20048;-66
2024/01/20 01:53:48;;;;;;;11.68;4.10;;;1.50;99.90;;;;;;5071690;28;20036;-66
2024/01/20 01:56:15;;;;;;;13.32;3.00;;;1.40;99.90;;;;;;5072999;28;20040;-66
2024/01/20 01:58:45;;;;;;;9.07;3.13;;;1.40;99.90;;;;;;5090042;28;20063;-66
2024/01/20 02:01:11;;;;;;;10.45;3.08;;;1.40;99.90;;;;;;5091855;28;20036;-66
2024/01/20 02:03:37;;;;;;;8.50;3.22;;;1.40;99.90;;;;;;5090837;28;20085;-66
2024/01/20 02:06:03;;;;;;;8.80;3.40;;;1.40;99.90;;;;;;5091249;28;20115;-66
2024/01/20 02:08:29;;;;;;;7.10;2.88;;;1.40;99.90;;;;;;5091816;28;20075;-65
2024/01/20 02:10:55;;;;;;;9.88;3.22;;;1.40;99.90;;;;;;5091872;28;20040;-65
2024/01/20 02:13:21;;;;;;;7.10;3.08;;;1.30;99.90;;;;;;5090898;28;20044;-66
2024/01/20 02:15:47;;;;;;;12.93;3.10;;;1.30;99.90;;;;;;5091448;28;20043;-66
2024/01/20 02:18:13;;;;;;;7.40;3.03;;;1.30;99.90;;;;;;5092700;28;20393;-66
2024/01/20 02:20:39;;;;;;;9.25;3.03;;;1.30;99.90;;;;;;5090552;28;20031;-65
2024/01/20 02:23:04;;;;;;;6.13;2.83;;;1.20;99.90;;;;;;5074791;28;20140;-66
2024/01/20 02:25:30;;;;;;;7.63;2.75;;;1.30;99.90;;;;;;5090305;28;20040;-66
2024/01/20 02:27:56;;;;;;;9.45;3.08;;;1.20;99.90;;;;;;5091676;28;20089;-65
2024/01/20 02:30:22;;;;;;;9.27;3.50;;;1.20;99.90;;;;;;5092778;28;20036;-65
2024/01/20 02:32:47;;;;;;;10.88;3.20;;;1.30;99.90;;;;;;5090645;28;20674;-66
2024/01/20 02:35:13;;;;;;;7.15;2.83;;;1.20;99.90;;;;;;5074703;28;20043;-66
2024/01/20 02:37:40;;;;;;;7.10;2.95;;;1.20;99.90;;;;;;5091112;28;20123;-65
2024/01/20 02:40:07;;;;;;;10.00;3.08;;;1.20;99.90;;;;;;5090716;28;20052;-65
2024/01/20 02:42:33;;;;;;;9.32;2.97;;;1.20;99.90;;;;;;5092074;28;20036;-65
2024/01/20 02:44:58;;;;;;;6.93;2.88;;;1.20;99.90;;;;;;5092784;28;20105;-65
2024/01/20 02:47:24;;;;;;;7.57;3.22;;;1.10;99.90;;;;;;5090316;28;20040;-65
2024/01/20 02:49:50;;;;;;;7.85;2.60;;;1.20;99.90;;;;;;5091209;28;20492;-65
2024/01/20 02:52:16;;;;;;;8.70;3.00;;;1.10;99.90;;;;;;5091417;28;20047;-66
2024/01/20 02:54:41;;;;;;;7.32;2.70;;;1.10;99.90;;;;;;5073329;28;20446;-65
2024/01/20 02:57:07;;;;;;;8.82;2.97;;;1.10;99.90;;;;;;5091090;28;20052;-65
2024/01/20 02:59:33;;;;;;;11.60;3.00;;;1.10;99.90;;;;;;5090845;28;20450;-65
2024/01/20 03:02:01;;;;;;;13.00;3.25;;;1.10;99.90;;;;;;5091708;28;20073;-65
2024/01/20 03:04:28;;;;;;;13.50;5.15;;;1.10;99.90;;;;;;5092094;28;20036;-65
2024/01/20 03:06:53;;;;;;;10.35;3.40;;;1.00;99.90;;;;;;5073385;28;20128;-65
2024/01/20 03:09:19;;;;;;;9.95;3.30;;;1.10;99.90;;;;;;5107074;28;20144;-65
2024/01/20 03:11:50;;;;;;;10.32;3.88;;;1.00;99.90;;;;;;5090538;28;20126;-65
2024/01/20 03:14:15;;;;;;;12.00;3.60;;;1.10;99.90;;;;;;5090881;28;20480;-65
2024/01/20 03:16:41;;;;;;;9.18;5.00;;;1.00;99.90;;;;;;5089727;28;20115;-65
2024/01/20 03:19:08;;;;;;;10.27;3.75;;;1.10;99.90;;;;;;5091326;28;20107;-65
2024/01/20 03:21:34;;;;;;;12.85;4.50;;;1.00;99.90;;;;;;5090717;28;20044;-65
2024/01/20 03:24:00;;;;;;;10.48;3.63;;;1.00;99.90;;;;;;5090568;28;20396;-65
2024/01/20 03:26:25;;;;;;;7.18;3.13;;;1.10;99.90;;;;;;5090529;28;20119;-65
2024/01/20 03:28:51;;;;;;;6.13;3.42;;;1.10;99.90;;;;;;5090182;28;20184;-64
2024/01/20 03:31:17;;;;;;;10.38;3.28;;;1.10;99.90;;;;;;5090472;28;20111;-65
2024/01/20 03:33:43;;;;;;;8.52;3.50;;;1.00;99.90;;;;;;5090555;28;20048;-65
2024/01/20 03:36:09;;;;;;;7.95;3.70;;;1.00;99.90;;;;;;5089999;28;20051;-65
2024/01/20 03:38:35;;;;;;;8.27;4.35;;;1.00;99.90;;;;;;5090439;28;20044;-65
2024/01/20 03:41:00;;;;;;;11.07;6.25;;;0.90;99.90;;;;;;5090789;28;20512;-64
2024/01/20 03:43:26;;;;;;;12.02;5.78;;;0.90;99.90;;;;;;5089942;28;20036;-65
2024/01/20 03:45:53;;;;;;;11.40;6.35;;;0.80;99.90;;;;;;5107316;28;20047;-65
2024/01/20 03:48:19;;;;;;;15.80;6.97;;;0.80;99.90;;;;;;5090408;28;20083;-65
2024/01/20 03:50:45;;;;;;;15.23;7.93;;;0.80;99.90;;;;;;5089263;28;20040;-65
2024/01/20 03:53:10;;;;;;;14.20;7.60;;;0.70;99.90;;;;;;5091621;28;20093;-65
2024/01/20 03:55:36;;;;;;;16.30;8.48;;;0.80;99.90;;;;;;5091905;28;20071;-65
2024/01/20 03:58:02;;;;;;;12.82;6.18;;;0.80;99.90;;;;;;5089898;28;20382;-65
2024/01/20 04:00:28;;;;;;;13.20;8.98;;;0.90;99.90;;;;;;5106889;28;20052;-65
2024/01/20 04:02:53;;;;;;;14.73;7.65;;;0.90;99.90;;;;;;5090196;28;20048;-65
2024/01/20 04:05:19;;;;;;;14.38;7.38;;;0.80;99.90;;;;;;5089909;28;20047;-65
2024/01/20 04:07:46;;;;;;;13.02;7.82;;;0.90;99.90;;;;;;5090073;28;20044;-65
2024/01/20 04:10:11;;;;;;;14.35;8.25;;;0.90;99.90;;;;;;5091907;28;20043;-65
2024/01/20 04:12:39;;;;;;;21.23;8.45;;;0.90;99.90;;;;;;5072907;28;20039;-65
2024/01/20 04:15:05;;;;;;;19.02;8.52;;;0.80;99.90;;;;;;5090366;28;20044;-65
2024/01/20 04:17:30;;;;;;;15.30;8.57;;;0.90;99.90;;;;;;5090148;28;20120;-65
2024/01/20 04:19:56;;;;;;;15.18;9.25;;;0.90;99.90;;;;;;5090981;28;20581;-65
2024/01/20 04:22:21;;;;;;;13.70;8.82;;;0.80;99.90;;;;;;5091269;28;20050;-65
2024/01/20 04:24:47;;;;;;;17.40;9.13;;;0.80;99.90;;;;;;5090396;28;20125;-65
2024/01/20 04:27:13;;;;;;;18.08;9.55;;;0.80;99.90;;;;;;5090553;28;20123;-65
2024/01/20 04:29:38;;;;;;;14.43;9.18;;;0.80;99.90;;;;;;5093321;28;20437;-64
2024/01/20 04:32:04;;;;;;;15.95;8.98;;;0.70;99.90;;;;;;5093708;28;20048;-65
2024/01/20 04:34:30;;;;;;;21.90;9.23;;;0.70;99.90;;;;;;5093588;28;20051;-64
2024/01/20 04:37:00;;;;;;;14.43;8.10;;;0.70;99.90;;;;;;5094963;28;20044;-65
2024/01/20 04:39:26;;;;;;;19.75;9.88;;;0.80;99.90;;;;;;5109724;28;20093;-64
2024/01/20 04:41:52;;;;;;;19.75;10.30;;;0.80;99.90;;;;;;5093449;28;20048;-64
2024/01/20 04:44:17;;;;;;;15.15;9.73;;;0.70;99.90;;;;;;5093535;28;20435;-64
2024/01/20 04:46:43;;;;;;;17.67;10.38;;;0.70;99.90;;;;;;5094152;28;20439;-64
2024/01/20 04:49:08;;;;;;;16.85;10.20;;;0.70;99.90;;;;;;5094618;28;20507;-64
2024/01/20 04:51:34;;;;;;;19.30;10.98;;;0.70;99.90;;;;;;5093229;28;20145;-64
2024/01/20 04:54:00;;;;;;;18.15;11.20;;;0.70;99.90;;;;;;5092827;28;20123;-64
2024/01/20 04:56:25;;;;;;;21.00;11.93;;;0.60;99.90;;;;;;5093438;28;20122;-64
2024/01/20 04:58:53;;;;;;;19.55;11.43;;;0.60;99.90;;;;;;5092843;28;20127;-64
2024/01/20 05:01:19;;;;;;;20.10;11.30;;;0.60;99.90;;;;;;5093712;28;20040;-64
2024/01/20 05:03:45;;;;;;;20.30;12.35;;;0.60;99.90;;;;;;5110418;28;20068;-64
2024/01/20 05:06:11;;;;;;;20.70;12.38;;;0.60;99.90;;;;;;5092730;28;20048;-64
2024/01/20 05:08:36;;;;;;;18.25;12.43;;;0.50;99.90;;;;;;5075377;28;20047;-64
2024/01/20 05:11:02;;;;;;;19.75;12.95;;;0.50;99.90;;;;;;5093561;28;20028;-64
2024/01/20 05:13:28;;;;;;;21.38;12.02;;;0.50;99.90;;;;;;5092803;28;20135;-64
2024/01/20 05:15:54;;;;;;;21.52;14.32;;;0.50;99.90;;;;;;5092273;28;20043;-64
2024/01/20 05:18:20;;;;;;;24.85;14.40;;;0.50;99.90;;;;;;5092781;28;20044;-64
2024/01/20 05:20:46;;;;;;;17.90;12.05;;;0.40;99.90;;;;;;5092777;28;20044;-64
2024/01/20 05:23:12;;;;;;;20.30;13.10;;;0.40;99.90;;;;;;5092012;28;20072;-64
2024/01/20 05:25:38;;;;;;;22.17;13.18;;;0.40;99.90;;;;;;5093851;28;20039;-64
2024/01/20 05:28:04;;;;;;;19.65;12.88;;;0.40;99.90;;;;;;5076071;28;20044;-64
2024/01/20 05:30:30;;;;;;;19.33;11.27;;;0.40;99.90;;;;;;5091570;28;20144;-64
2024/01/20 05:32:55;;;;;;;21.55;13.93;;;0.40;99.90;;;;;;5092922;28;20119;-64
2024/01/20 05:35:21;;;;;;;25.33;13.35;;;0.50;99.90;;;;;;5091419;28;20051;-64
2024/01/20 05:37:47;;;;;;;24.27;13.98;;;0.40;99.90;;;;;;5092640;28;20384;-64
2024/01/20 05:40:13;;;;;;;23.73;13.55;;;0.40;99.90;;;;;;5093546;28;20067;-64
2024/01/20 05:42:38;;;;;;;18.73;12.52;;;0.40;99.90;;;;;;5092623;28;20793;-64
2024/01/20 05:45:08;;;;;;;26.58;14.00;;;0.40;99.90;;;;;;5093830;28;20033;-64
2024/01/20 05:47:37;;;;;;;21.08;12.57;;;0.40;99.90;;;;;;5075514;28;20402;-64
2024/01/20 05:50:04;;;;;;;19.98;12.63;;;0.40;99.90;;;;;;5092044;28;20040;-64
2024/01/20 05:52:29;;;;;;;21.85;13.60;;;0.40;99.90;;;;;;5092044;28;20056;-64
2024/01/20 05:54:55;;;;;;;25.45;14.27;;;0.40;99.90;;;;;;5075506;28;20131;-64
2024/01/20 05:57:20;;;;;;;28.83;15.82;;;0.30;99.90;;;;;;5091131;28;20044;-64
2024/01/20 05:59:46;;;;;;;24.40;14.70;;;0.30;99.90;;;;;;5092122;28;20450;-64
2024/01/20 06:02:12;;;;;;;28.60;14.55;;;0.30;99.90;;;;;;5093094;28;20040;-64
2024/01/20 06:04:37;;;;;;;22.38;14.13;;;0.30;99.90;;;;;;5090870;28;20085;-64
2024/01/20 06:07:03;;;;;;;28.13;14.50;;;0.30;99.90;;;;;;5092306;28;20071;-64
2024/01/20 06:09:29;;;;;;;26.30;14.52;;;0.30;99.90;;;;;;5093093;28;20044;-64
2024/01/20 06:11:54;;;;;;;22.40;14.18;;;0.30;99.90;;;;;;5092491;28;20044;-64
2024/01/20 06:14:20;;;;;;;24.55;14.98;;;0.30;99.90;;;;;;5091669;28;20043;-63
2024/01/20 06:16:46;;;;;;;25.05;16.02;;;0.20;99.90;;;;;;5091765;28;20100;-64
2024/01/20 06:19:12;;;;;;;27.13;15.70;;;0.30;99.90;;;;;;5090849;28;20048;-63
2024/01/20 06:21:37;;;;;;;26.02;14.98;;;0.20;99.90;;;;;;5092693;28;20036;-63
2024/01/20 06:24:03;;;;;;;25.70;14.93;;;0.20;99.90;;;;;;5091843;28;20105;-64
2024/01/20 06:26:29;;;;;;;24.67;15.13;;;0.20;99.90;;;;;;5091019;28;20040;-64
2024/01/20 06:28:55;;;;;;;23.67;13.90;;;0.20;99.90;;;;;;5091675;28;20043;-64
2024/01/20 06:31:25;;;;;;;27.65;15.50;;;0.30;99.90;;;;;;5074441;28;20044;-64
2024/01/20 06:33:52;;;;;;;23.48;13.82;;;0.30;99.90;;;;;;5091386;28;20046;-63
2024/01/20 06:36:18;;;;;;;23.63;14.35;;;0.30;99.90;;;;;;5091768;28;20443;-63
2024/01/20 06:38:43;;;;;;;24.00;14.75;;;0.20;99.90;;;;;;5090716;28;20079;-63
2024/01/20 06:41:09;;;;;;;29.55;15.65;;;0.30;99.90;;;;;;5092589;28;20512;-63
2024/01/20 06:43:35;;;;;;;31.17;15.98;;;0.30;99.90;;;;;;5091343;28;20043;-63
2024/01/20 06:46:00;;;;;;;27.88;14.02;;;0.30;99.90;;;;;;5091997;28;20100;-63
2024/01/20 06:48:26;;;;;;;28.75;15.00;;;0.20;99.90;;;;;;5091217;28;20485;-63
2024/01/20 06:50:52;;;;;;;28.73;14.80;;;0.20;99.90;;;;;;5107606;28;20522;-63
2024/01/20 06:53:18;;;;;;;24.92;13.98;;;0.20;99.90;;;;;;5091846;28;20024;-63
2024/01/20 06:55:44;;;;;;;29.55;14.35;;;0.20;99.90;;;;;;5091158;28;20044;-63
2024/01/20 06:58:09;;;;;;;25.83;15.52;;;0.20;99.90;;;;;;5090957;28;20412;-63
2024/01/20 07:00:35;;;;;;;29.67;16.10;;;0.20;99.90;;;;;;5090826;28;20044;-63
2024/01/20 07:03:02;;;;;;;31.77;16.77;;;0.20;99.90;;;;;;5108350;28;20589;-63
2024/01/20 07:05:28;;;;;;;26.88;14.60;;;0.20;99.90;;;;;;5093850;28;20048;-63
2024/01/20 07:07:54;;;;;;;32.25;15.80;;;0.30;99.90;;;;;;5087989;28;20090;-63
2024/01/20 07:10:19;;;;;;;27.27;15.40;;;0.30;99.90;;;;;;5091186;28;20044;-63
2024/01/20 07:12:45;;;;;;;26.67;15.00;;;0.30;99.90;;;;;;5092219;28;20488;-63
2024/01/20 07:15:11;;;;;;;31.48;16.92;;;0.20;99.90;;;;;;5090038;28;20043;-63
2024/01/20 07:17:36;;;;;;;33.58;16.90;;;0.30;99.90;;;;;;5091089;28;20047;-63
2024/01/20 07:20:03;;;;;;;31.02;16.20;;;0.30;99.90;;;;;;5092302;28;20042;-63
2024/01/20 07:22:28;;;;;;;32.20;16.10;;;0.30;99.90;;;;;;5091286;28;20373;-63
2024/01/20 07:24:54;;;;;;;25.08;14.75;;;0.40;99.90;;;;;;5090697;28;20047;-63
2024/01/20 07:27:20;;;;;;;29.27;15.70;;;0.40;99.90;;;;;;5090870;28;20036;-63
2024/01/20 07:29:46;;;;;;;30.00;15.70;;;0.40;99.90;;;;;;5090358;28;20397;-63
2024/01/20 07:32:11;;;;;;;29.25;17.15;;;0.40;99.90;;;;;;5090622;28;20044;-63
2024/01/20 07:34:37;;;;;;;26.08;15.82;;;0.50;99.90;;;;;;5090282;28;20040;-63
2024/01/20 07:37:03;;;;;;;29.33;15.80;;;0.50;99.90;;;;;;5090189;28;20047;-63
2024/01/20 07:39:29;;;;;;;28.95;15.93;;;0.50;99.90;;;;;;5090589;28;20044;-63
2024/01/20 07:41:54;;;;;;;29.73;15.70;;;0.60;99.90;;;;;;5090708;28;20040;-63
2024/01/20 07:44:20;;;;;;;29.08;15.43;;;0.50;99.90;;;;;;5090418;28;20043;-63
2024/01/20 07:46:46;;;;;;;32.60;17.38;;;0.60;99.90;;;;;;5090567;28;20119;-63
2024/01/20 07:49:12;;;;;;;28.33;16.40;;;0.60;99.90;;;;;;5089826;28;20036;-63
2024/01/20 07:51:37;;;;;;;34.30;17.52;;;0.60;99.90;;;;;;5090497;28;20044;-63
2024/01/20 07:54:03;;;;;;;39.40;19.83;;;0.60;99.90;;;;;;5090768;28;20127;-63
2024/01/20 07:56:29;;;;;;;31.27;17.98;;;0.60;99.90;;;;;;5072612;28;20115;-63
2024/01/20 07:58:54;;;;;;;38.08;18.38;;;0.70;99.90;;;;;;5079217;28;20067;-64
2024/01/20 08:01:20;;;;;;;34.75;18.90;;;0.60;99.90;;;;;;5091799;28;20380;-63
2024/01/20 08:03:46;;;;;;;32.22;17.88;;;0.70;99.90;;;;;;5094870;28;20040;-63
2024/01/20 08:06:11;;;;;;;27.83;17.48;;;0.70;99.90;;;;;;5091986;28;20808;-63
2024/01/20 08:08:37;;;;;;;29.58;16.90;;;0.80;99.90;;;;;;5091729;28;20071;-63
2024/01/20 08:11:03;;;;;;;31.30;17.20;;;0.80;99.90;;;;;;5108403;28;20122;-63
2024/01/20 08:13:29;;;;;;;32.40;17.23;;;0.90;99.90;;;;;;5074215;28;20068;-63
2024/01/20 08:15:54;;;;;;;33.40;17.73;;;1.00;99.90;;;;;;5091473;28;20039;-63
2024/01/20 08:18:20;;;;;;;29.65;19.08;;;1.10;99.90;;;;;;5090897;28;20039;-63
2024/01/20 08:20:45;;;;;;;33.05;17.98;;;1.10;99.90;;;;;;5108459;28;20572;-63
2024/01/20 08:23:11;;;;;;;31.05;19.15;;;1.10;99.90;;;;;;5091321;28;20044;-63
2024/01/20 08:25:37;;;;;;;38.05;18.95;;;1.10;99.90;;;;;;5091595;28;20465;-63
2024/01/20 08:28:03;;;;;;;36.58;17.90;;;1.10;99.90;;;;;;5089697;28;20047;-63
2024/01/20 08:30:29;;;;;;;35.13;18.83;;;1.10;99.90;;;;;;5090954;28;20039;-63
2024/01/20 08:32:54;;;;;;;39.60;20.25;;;1.10;99.90;;;;;;5091157;28;20155;-63
2024/01/20 08:35:20;;;;;;;36.17;19.52;;;1.10;99.90;;;;;;5090802;28;20527;-63
2024/01/20 08:37:45;;;;;;;35.35;20.20;;;1.10;99.90;;;;;;5091123;28;20052;-63
2024/01/20 08:40:11;;;;;;;38.53;18.70;;;1.20;99.90;;;;;;5090571;28;20051;-63
2024/01/20 08:42:38;;;;;;;42.20;21.20;;;1.20;99.90;;;;;;5074034;28;20048;-63
2024/01/20 08:45:04;;;;;;;35.20;20.23;;;1.10;99.90;;;;;;5074774;28;20031;-63
2024/01/20 08:47:30;;;;;;;34.72;19.83;;;1.20;99.90;;;;;;5102207;28;20047;-63
2024/01/20 08:49:56;;;;;;;33.17;19.80;;;1.20;99.90;;;;;;5108292;28;20047;-63
2024/01/20 08:52:22;;;;;;;33.05;19.60;;;1.20;99.90;;;;;;5091483;28;20130;-64
2024/01/20 08:54:47;;;;;;;35.70;19.65;;;1.20;99.90;;;;;;5107687;28;20048;-64
2024/01/20 08:57:13;;;;;;;37.45;19.98;;;1.20;99.90;;;;;;5090446;28;20061;-63
2024/01/20 08:59:39;;;;;;;38.22;18.83;;;1.30;99.90;;;;;;5091248;28;20051;-63
2024/01/20 09:02:05;;;;;;;35.38;18.67;;;1.30;99.90;;;;;;5090835;28;20524;-64
2024/01/20 09:04:31;;;;;;;34.92;17.85;;;1.40;99.90;;;;;;5073585;28;20044;-63
2024/01/20 09:06:57;;;;;;;30.55;16.98;;;1.40;99.90;;;;;;5090199;28;20040;-64
2024/01/20 09:09:22;;;;;;;34.15;18.77;;;1.40;99.90;;;;;;5090542;28;20040;-64
2024/01/20 09:11:48;;;;;;;29.33;17.17;;;1.50;99.90;;;;;;5090483;28;20547;-63
2024/01/20 09:14:14;;;;;;;35.47;17.95;;;1.50;99.90;;;;;;5089096;28;20096;-64
2024/01/20 09:16:40;;;;;;;31.58;15.75;;;1.60;99.90;;;;;;5073374;28;20031;-64
2024/01/20 09:19:06;;;;;;;35.22;19.15;;;1.60;99.90;;;;;;5091391;28;20515;-64
2024/01/20 09:21:31;;;;;;;33.50;18.50;;;1.60;99.90;;;;;;5089172;28;20032;-64
2024/01/20 09:23:57;;;;;;;33.53;18.23;;;1.60;99.90;;;;;;5090329;28;20569;-64
2024/01/20 09:26:23;;;;;;;34.20;19.13;;;1.70;99.90;;;;;;5091402;28;20122;-64
2024/01/20 09:28:48;;;;;;;28.38;17.00;;;1.70;99.90;;;;;;5087451;28;20040;-64
2024/01/20 09:31:14;;;;;;;30.80;16.48;;;1.80;99.90;;;;;;5106042;28;20044;-64
2024/01/20 09:33:42;;;;;;;30.85;17.50;;;1.80;99.90;;;;;;5089395;28;20454;-64
2024/01/20 09:36:08;;;;;;;30.40;17.20;;;1.80;99.90;;;;;;5089002;28;20036;-64
2024/01/20 09:38:33;;;;;;;26.65;16.35;;;1.80;99.90;;;;;;5089319;28;20097;-64
2024/01/20 09:40:59;;;;;;;28.92;16.92;;;1.90;99.90;;;;;;5089519;28;20040;-63
2024/01/20 09:43:28;;;;;;;29.75;16.77;;;1.80;99.90;;;;;;5088404;28;20035;-63
2024/01/20 09:45:57;;;;;;;32.22;17.02;;;1.90;99.90;;;;;;5089112;28;20067;-64
2024/01/20 09:48:23;;;;;;;27.48;15.70;;;1.90;99.90;;;;;;5090434;28;20500;-64
2024/01/20 09:50:49;;;;;;;33.85;18.25;;;1.90;99.90;;;;;;5088242;28;20048;-64
2024/01/20 09:53:16;;;;;;;33.38;18.33;;;1.90;99.90;;;;;;5089293;28;20404;-64
2024/01/20 09:55:43;;;;;;;29.70;15.93;;;1.90;99.90;;;;;;5090189;28;20469;-64
2024/01/20 09:58:12;;;;;;;33.00;16.52;;;2.00;99.90;;;;;;5088683;28;20067;-63
2024/01/20 10:00:39;;;;;;;36.78;17.58;;;2.00;99.90;;;;;;5088869;28;20044;-63
2024/01/20 10:03:07;;;;;;;26.65;17.02;;;2.00;99.90;;;;;;5087815;28;20101;-64
2024/01/20 10:05:33;;;;;;;31.25;16.15;;;2.10;99.90;;;;;;5071691;28;20489;-64
2024/01/20 10:08:00;;;;;;;33.25;17.92;;;2.10;99.90;;;;;;5088905;28;20123;-64
2024/01/20 10:10:26;;;;;;;27.27;15.88;;;2.10;99.90;;;;;;5089729;28;20051;-64
2024/01/20 10:12:54;;;;;;;26.88;15.32;;;2.10;99.90;;;;;;5072572;28;20056;-64
2024/01/20 10:15:25;;;;;;;28.17;15.52;;;2.10;99.90;;;;;;5072275;28;20040;-64
2024/01/20 10:17:51;;;;;;;32.35;16.60;;;2.20;99.90;;;;;;5088163;28;20062;-64
2024/01/20 10:20:36;;;;;;;31.15;17.73;;;2.10;99.90;;;;;;5089096;28;20378;-64
2024/01/20 10:23:04;;;;;;;27.80;16.60;;;2.20;99.90;;;;;;5087989;28;20044;-64
2024/01/20 10:25:30;;;;;;;24.73;15.60;;;2.20;99.90;;;;;;5086745;28;20043;-64
2024/01/20 10:27:56;;;;;;;26.75;14.75;;;2.20;99.90;;;;;;5094420;28;20043;-64
2024/01/20 10:30:22;;;;;;;29.27;15.68;;;2.20;99.90;;;;;;5089569;28;20039;-64
2024/01/20 10:32:52;;;;;;;28.70;15.98;;;2.20;99.90;;;;;;5087777;28;20151;-64
2024/01/20 10:35:18;;;;;;;28.23;15.02;;;2.20;99.90;;;;;;5088441;28;20051;-64
2024/01/20 10:37:44;;;;;;;31.40;15.65;;;2.20;99.90;;;;;;5087811;28;20048;-64
2024/01/20 10:40:14;;;;;;;27.40;14.43;;;2.30;99.90;;;;;;5070806;28;20096;-64
2024/01/20 10:42:45;;;;;;;27.45;15.32;;;2.30;99.90;;;;;;5087598;28;20071;-64
2024/01/20 10:45:17;;;;;;;28.70;14.32;;;2.20;99.90;;;;;;5087847;28;20043;-64
2024/01/20 10:47:58;;;;;;;24.67;13.30;;;2.20;99.90;;;;;;5087758;28;20361;-64
2024/01/20 10:50:25;;;;;;;30.55;14.88;;;2.20;99.90;;;;;;5088934;28;20101;-64
2024/01/20 10:52:51;;;;;;;27.65;13.18;;;2.10;99.90;;;;;;5088153;28;20496;-64
2024/01/20 10:55:19;;;;;;;27.55;14.80;;;2.20;99.90;;;;;;5088578;28;20047;-63
2024/01/20 10:57:49;;;;;;;28.48;14.13;;;2.20;99.90;;;;;;5088893;28;20120;-63
2024/01/20 11:00:17;;;;;;;29.85;14.85;;;2.20;99.90;;;;;;5087851;28;20443;-64
2024/01/20 11:02:44;;;;;;;26.65;14.02;;;2.10;99.90;;;;;;5088540;28;20136;-63
2024/01/20 11:05:23;;;;;;;25.13;14.00;;;2.10;99.90;;;;;;5088092;28;20044;-63
2024/01/20 11:07:56;;;;;;;33.22;14.68;;;2.20;99.90;;;;;;5104629;28;20093;-63
2024/01/20 11:10:23;;;;;;;25.77;13.82;;;2.20;99.90;;;;;;5088522;28;20044;-64
2024/01/20 11:13:23;;;;;;;24.63;14.75;;;2.10;99.90;;;;;;5088652;28;20978;-64
2024/01/20 11:15:50;;;;;;;28.38;14.32;;;2.20;99.90;;;;;;5077238;28;20061;-63
2024/01/20 11:18:20;;;;;;;33.20;16.00;;;2.10;99.90;;;;;;5088589;28;20394;-64
2024/01/20 11:21:03;;;;;;;23.48;12.80;;;2.10;99.90;;;;;;5102684;28;20063;-64
2024/01/20 11:23:29;;;;;;;29.58;15.43;;;2.10;99.90;;;;;;5087807;28;20548;-63
2024/01/20 11:25:56;;;;;;;27.88;15.50;;;2.10;99.90;;;;;;5088032;28;20047;-63
2024/01/20 11:28:30;;;;;;;27.60;14.35;;;2.10;99.90;;;;;;5068783;28;20048;-63
2024/01/20 11:30:55;;;;;;;31.02;15.93;;;2.10;99.90;;;;;;5106685;28;20169;-63
2024/01/20 11:33:21;;;;;;;25.25;13.80;;;2.10;99.90;;;;;;5108601;28;20866;-63
2024/01/20 11:35:47;;;;;;;26.20;15.48;;;2.10;99.90;;;;;;5074772;28;20551;-63
2024/01/20 11:38:16;;;;;;;28.73;15.80;;;2.10;99.90;;;;;;5092139;28;20048;-63
2024/01/20 11:40:42;;;;;;;37.45;17.25;;;2.10;99.90;;;;;;5075166;28;20493;-64
2024/01/20 11:43:10;;;;;;;33.30;16.35;;;2.00;99.90;;;;;;5091045;28;20051;-64
2024/01/20 11:45:35;;;;;;;30.38;16.38;;;2.10;99.90;;;;;;5075225;28;20089;-64
2024/01/20 11:48:01;;;;;;;28.95;15.30;;;2.10;99.90;;;;;;5092370;28;20122;-63
2024/01/20 11:50:27;;;;;;;28.33;15.75;;;2.00;99.90;;;;;;5091051;28;20078;-64
2024/01/20 11:52:52;;;;;;;34.92;18.70;;;2.10;99.90;;;;;;5092216;28;20040;-64
2024/01/20 11:55:18;;;;;;;29.63;14.30;;;2.10;99.90;;;;;;5090859;28;20480;-64
2024/01/20 11:57:44;;;;;;;33.03;17.42;;;2.20;99.90;;;;;;5091504;28;20560;-65
2024/01/20 12:00:11;;;;;;;30.45;17.23;;;2.20;99.90;;;;;;5109066;28;20147;-64
2024/01/20 12:02:37;;;;;;;35.40;16.27;;;2.20;99.90;;;;;;5092132;28;20123;-65
2024/01/20 12:05:04;;;;;;;32.17;17.83;;;2.20;99.90;;;;;;5092861;28;20124;-65
2024/01/20 12:07:29;;;;;;;35.70;18.42;;;2.20;99.90;;;;;;5091103;28;20043;-65
2024/01/20 12:09:56;;;;;;;32.22;16.52;;;2.30;99.90;;;;;;5091090;28;20258;-65
2024/01/20 12:12:22;;;;;;;35.70;18.42;;;2.30;99.90;;;;;;5090908;28;20048;-65
2024/01/20 12:14:49;;;;;;;32.95;17.65;;;2.30;99.90;;;;;;5091624;28;20417;-65
2024/01/20 12:17:15;;;;;;;39.05;18.75;;;2.30;99.90;;;;;;5091732;28;20051;-65
2024/01/20 12:19:41;;;;;;;34.65;19.13;;;2.30;99.90;;;;;;5090701;28;20036;-65
2024/01/20 12:22:09;;;;;;;32.58;18.13;;;2.30;99.90;;;;;;5090833;28;20044;-65
2024/01/20 12:24:35;;;;;;;32.20;17.52;;;2.30;99.90;;;;;;5072803;28;20044;-65
2024/01/20 12:27:04;;;;;;;34.53;18.83;;;2.30;99.90;;;;;;5091387;28;20040;-65
2024/01/20 12:29:31;;;;;;;33.97;16.70;;;2.30;99.90;;;;;;5074963;28;20043;-64
2024/01/20 12:31:57;;;;;;;31.08;17.25;;;2.30;99.90;;;;;;5106144;28;20044;-65
2024/01/20 12:34:25;;;;;;;35.58;17.73;;;2.30;99.90;;;;;;5073974;28;20067;-65
2024/01/20 12:36:56;;;;;;;30.08;17.52;;;2.30;99.90;;;;;;5092677;28;20397;-64
2024/01/20 12:39:23;;;;;;;28.58;16.80;;;2.40;99.90;;;;;;5090559;28;20048;-65